Terminal Aerodrome Forecast
Issued by NWS Cleveland, OH

Home | Current Version | Previous Version | Text Only | Print | Product List | Glossary On
Versions: 1 2 3 4 5 6 7 8 9 10 11 12 13 14 15 16 17 18 19 20 21 22 23 24 25 26
000
FTUS41 KCLE 260500
TAFERI
TAF
KERI 260527Z 2606/2706 05015KT P6SM OVC080
      TEMPO 2606/2610 3SM -SN BKN030
     FM261000 05014G20KT P6SM SCT025 OVC045
      TEMPO 2610/2614 5SM -SN BKN025
     FM261400 05014G20KT 3SM -SN SCT012 OVC025
      TEMPO 2614/2618 1SM -SN BR OVC012
     FM261800 05014KT 4SM -SN OVC025
     FM270200 04010KT 2SM -SN OVC012=

USA.gov is the U.S. government's official web portal to all federal, state and local government web resources and services.